Santa Luzia, Brazil
Current Conditions -  °F | °C
As of 11:00 PM on Saturday 20 Dec 2014 (Local Time) from SBCF Reporting Station
Few Clouds Few Clouds  
Wind Chill: 72°   Ceiling: Unl
Heat Index: 72°   Visibility: 6mi
Dew Point: 63°   Wind: 8mph
Humidity: 73%   Direction: 40°NE
Pressure: 30.03"   Gusts: NA
Location:  19.77°S, 43.85°W
Report Text: SBCF 210100Z 04007KT 9999 FEW045 22/17 Q1017
Loading
Personal Weather Stations






























Interactive Weather Map New forecast layout! Learn more

10-Day Weather Forecast

Advertisements
Track Severe Weather on mobile